createdAt,value
2022-09-04T00:02:35.193Z,2.17
2022-09-04T00:05:24.185Z,2.00
2022-09-04T00:08:35.234Z,2.10
2022-09-04T00:11:29.430Z,2.10
2022-09-04T00:14:01.209Z,1.77
2022-09-04T00:16:30.853Z,2.13
2022-09-04T00:19:02.955Z,1.90
2022-09-04T00:21:40.212Z,2.03
2022-09-04T00:24:15.775Z,1.80
2022-09-04T00:26:54.537Z,1.97
2022-09-04T00:29:33.212Z,2.10
2022-09-04T00:32:02.936Z,2.00
2022-09-04T00:34:44.557Z,1.93
2022-09-04T00:37:16.654Z,2.07
2022-09-04T00:40:11.803Z,1.90
2022-09-04T00:42:47.622Z,1.80
2022-09-04T00:45:23.563Z,2.00
2022-09-04T00:48:01.747Z,1.70
2022-09-04T00:50:39.945Z,2.27
2022-09-04T00:53:09.847Z,1.60
2022-09-04T00:55:44.817Z,2.00
2022-09-04T00:58:27.119Z,1.80
2022-09-04T01:00:58.324Z,2.07
2022-09-04T01:04:02.461Z,1.80
2022-09-04T01:06:49.445Z,1.93
2022-09-04T01:09:42.516Z,1.60
2022-09-04T01:12:37.905Z,1.80
2022-09-04T01:15:15.768Z,1.80
2022-09-04T01:17:48.332Z,1.80
2022-09-04T01:20:39.022Z,1.70
2022-09-04T01:23:18.800Z,1.90
2022-09-04T01:26:07.005Z,1.70
2022-09-04T01:28:42.664Z,1.57
2022-09-04T01:31:09.541Z,1.77
2022-09-04T01:33:55.509Z,1.50
2022-09-04T01:36:35.868Z,1.80
2022-09-04T01:39:03.676Z,1.90
2022-09-04T01:42:05.897Z,1.80
2022-09-04T01:44:34.178Z,1.60
2022-09-04T01:47:20.256Z,1.60
2022-09-04T01:50:15.372Z,1.90
2022-09-04T01:53:00.793Z,1.70
2022-09-04T01:55:46.169Z,2.13
2022-09-04T01:58:23.929Z,1.80
2022-09-04T02:00:53.714Z,1.80
2022-09-04T02:03:52.320Z,1.93
2022-09-04T02:06:57.135Z,1.80
2022-09-04T02:09:27.053Z,1.63
2022-09-04T02:12:29.747Z,1.63
2022-09-04T02:15:19.895Z,1.77
2022-09-04T02:17:49.885Z,2.00
2022-09-04T02:20:22.979Z,2.17
2022-09-04T02:23:11.888Z,1.80
2022-09-04T02:25:57.011Z,1.80
2022-09-04T02:29:00.307Z,1.80
2022-09-04T02:31:49.477Z,2.00
2022-09-04T02:34:38.518Z,2.20
2022-09-04T02:37:37.744Z,1.90
2022-09-04T02:40:18.496Z,1.80
2022-09-04T02:42:59.816Z,1.90
2022-09-04T02:46:19.214Z,1.90
2022-09-04T02:49:02.475Z,1.60
2022-09-04T02:52:06.291Z,1.93
2022-09-04T02:55:08.164Z,1.90
2022-09-04T02:57:55.274Z,2.13
2022-09-04T03:00:42.564Z,1.70
2022-09-04T03:03:21.362Z,2.30
2022-09-04T03:05:51.936Z,1.70
2022-09-04T03:08:36.507Z,1.90
2022-09-04T03:11:16.322Z,1.93
2022-09-04T03:14:07.686Z,1.90
2022-09-04T03:16:43.281Z,1.57
2022-09-04T03:19:16.775Z,1.80
2022-09-04T03:21:59.448Z,1.93
2022-09-04T03:24:29.074Z,1.87
2022-09-04T03:27:01.619Z,2.13
2022-09-04T03:29:37.523Z,1.80
2022-09-04T03:32:25.473Z,2.17
2022-09-04T03:34:59.821Z,2.10
2022-09-04T03:38:08.272Z,2.23
2022-09-04T03:41:06.346Z,2.10
2022-09-04T03:43:57.534Z,2.00
2022-09-04T03:46:37.716Z,2.50
2022-09-04T03:49:27.529Z,2.40
2022-09-04T03:52:14.729Z,2.30
2022-09-04T03:55:16.110Z,2.43
2022-09-04T03:58:12.265Z,2.90
2022-09-04T04:01:24.124Z,2.60
2022-09-04T04:04:10.482Z,2.80
2022-09-04T04:06:49.004Z,2.20
2022-09-04T04:09:33.717Z,2.40
2022-09-04T04:12:32.608Z,2.47
2022-09-04T04:15:42.229Z,2.73
2022-09-04T04:18:35.084Z,2.87
2022-09-04T04:21:01.953Z,3.47
2022-09-04T04:23:58.283Z,2.73
2022-09-04T04:26:40.751Z,2.50
2022-09-04T04:29:13.607Z,3.50
2022-09-04T04:32:10.785Z,3.13
2022-09-04T04:35:11.651Z,3.13
2022-09-04T04:38:24.354Z,3.47
2022-09-04T04:41:16.011Z,4.23
2022-09-04T04:43:59.298Z,4.23
2022-09-04T04:46:44.950Z,3.50
2022-09-04T04:49:34.282Z,3.63
2022-09-04T04:52:19.625Z,3.60
2022-09-04T04:55:22.202Z,3.90
2022-09-04T04:58:00.890Z,3.50
2022-09-04T05:00:49.135Z,3.40
2022-09-04T05:03:52.301Z,3.23
2022-09-04T05:06:31.044Z,3.93
2022-09-04T05:09:19.477Z,3.53
2022-09-04T05:12:16.274Z,3.40
2022-09-04T05:15:02.220Z,3.30
2022-09-04T05:17:54.684Z,3.73
2022-09-04T05:20:33.438Z,3.83
2022-09-04T05:23:06.736Z,4.37
2022-09-04T05:26:02.725Z,4.03
2022-09-04T05:28:35.491Z,4.30
2022-09-04T05:31:22.170Z,4.40
2022-09-04T05:34:13.122Z,4.00
2022-09-04T05:36:45.129Z,4.20
2022-09-04T05:39:58.866Z,3.90
2022-09-04T05:43:04.176Z,4.00
2022-09-04T05:45:41.024Z,3.70
2022-09-04T05:48:10.800Z,3.23
2022-09-04T05:51:06.937Z,3.30
2022-09-04T05:54:08.379Z,3.87
2022-09-04T05:56:57.144Z,3.43
2022-09-04T05:59:27.900Z,3.20
2022-09-04T06:02:22.069Z,3.13
2022-09-04T06:04:49.150Z,3.50
2022-09-04T06:07:22.596Z,3.20
2022-09-04T06:10:24.647Z,3.70
2022-09-04T06:13:15.851Z,3.37
2022-09-04T06:16:06.758Z,3.70
2022-09-04T06:18:53.996Z,2.73
2022-09-04T06:21:41.169Z,2.70
2022-09-04T06:24:26.724Z,2.60
2022-09-04T06:27:30.956Z,2.20
2022-09-04T06:30:14.815Z,2.30
2022-09-04T06:32:49.257Z,1.95
2022-09-04T06:35:40.935Z,2.00
2022-09-04T06:38:47.441Z,2.30
2022-09-04T06:41:47.711Z,2.10
2022-09-04T06:44:57.954Z,1.88
2022-09-04T06:47:53.879Z,1.75
2022-09-04T06:50:26.198Z,1.95
2022-09-04T06:55:50.628Z,1.90
2022-09-04T06:58:49.090Z,2.17
2022-09-04T07:01:20.105Z,2.10
2022-09-04T07:03:52.988Z,1.98
2022-09-04T07:06:43.934Z,1.92
2022-09-04T07:09:36.410Z,2.15
2022-09-04T07:12:36.581Z,2.10
2022-09-04T07:15:34.517Z,2.00
2022-09-04T07:18:25.770Z,2.00
2022-09-04T07:21:11.440Z,1.88
2022-09-04T07:23:41.434Z,2.20
2022-09-04T07:26:46.689Z,2.15
2022-09-04T07:29:16.966Z,2.10
2022-09-04T07:32:08.550Z,1.90
2022-09-04T07:34:47.395Z,2.10
2022-09-04T07:37:25.386Z,2.28
2022-09-04T07:40:09.680Z,2.03
2022-09-04T07:42:59.741Z,2.22
2022-09-04T07:45:55.389Z,2.25
2022-09-04T07:48:42.785Z,2.55
2022-09-04T07:51:17.103Z,2.17
2022-09-04T07:53:59.402Z,1.95
2022-09-04T07:56:49.424Z,2.20
2022-09-04T07:59:20.589Z,2.33
2022-09-04T08:01:53.998Z,2.15
2022-09-04T08:04:55.065Z,2.00
2022-09-04T08:07:48.063Z,2.45
2022-09-04T08:10:39.322Z,2.00
2022-09-04T08:13:18.518Z,2.53
2022-09-04T08:15:58.115Z,2.17
2022-09-04T08:18:39.878Z,1.98
2022-09-04T08:21:34.711Z,2.10
2022-09-04T08:24:26.332Z,2.20
2022-09-04T08:27:15.433Z,2.10
2022-09-04T08:29:48.244Z,2.22
2022-09-04T08:32:38.477Z,2.40
2022-09-04T08:35:18.656Z,2.08
2022-09-04T08:37:51.337Z,2.13
2022-09-04T08:40:35.621Z,2.08
2022-09-04T08:43:08.743Z,2.15
2022-09-04T08:46:11.484Z,2.15
2022-09-04T08:48:58.654Z,2.15
2022-09-04T08:52:03.285Z,2.40
2022-09-04T08:54:57.050Z,1.90
2022-09-04T08:57:55.537Z,2.25
2022-09-04T09:00:56.198Z,2.30
2022-09-04T09:03:38.462Z,2.25
2022-09-04T09:06:39.263Z,2.42
2022-09-04T09:09:20.709Z,2.20
2022-09-04T09:12:25.101Z,1.80
2022-09-04T09:15:16.393Z,2.25
2022-09-04T09:18:02.723Z,2.00
2022-09-04T09:20:37.260Z,2.22
2022-09-04T09:23:24.853Z,2.42
2022-09-04T09:26:15.044Z,2.00
2022-09-04T09:28:50.737Z,2.42
2022-09-04T09:31:36.618Z,2.20
2022-09-04T09:34:38.128Z,2.03
2022-09-04T09:37:13.971Z,2.08
2022-09-04T09:40:06.167Z,2.10
2022-09-04T09:43:01.537Z,2.30
2022-09-04T09:45:44.666Z,2.40
2022-09-04T09:48:26.679Z,2.00
2022-09-04T09:51:25.968Z,2.50
2022-09-04T09:54:04.897Z,2.10
2022-09-04T09:57:06.922Z,2.30
2022-09-04T09:59:51.798Z,2.33
2022-09-04T10:02:46.224Z,2.47
2022-09-04T10:05:36.099Z,2.20
2022-09-04T10:08:28.456Z,2.47
2022-09-04T10:11:39.006Z,1.90
2022-09-04T10:14:25.250Z,2.30
2022-09-04T10:17:40.300Z,2.25
2022-09-04T10:20:36.511Z,2.50
2022-09-04T10:23:31.623Z,1.83
2022-09-04T10:26:03.853Z,2.20
2022-09-04T10:29:02.590Z,2.45
2022-09-04T10:31:35.351Z,2.03
2022-09-04T10:34:24.347Z,2.40
2022-09-04T10:36:59.391Z,2.33
2022-09-04T10:39:59.317Z,2.15
2022-09-04T10:43:03.918Z,2.28
2022-09-04T10:45:41.694Z,2.30
2022-09-04T10:48:39.684Z,2.40
2022-09-04T10:51:39.913Z,2.13
2022-09-04T10:54:14.963Z,2.10
2022-09-04T10:57:19.204Z,2.35
2022-09-04T11:00:09.121Z,2.40
2022-09-04T11:03:04.278Z,2.17
2022-09-04T11:05:50.932Z,1.77
2022-09-04T11:08:36.653Z,2.20
2022-09-04T11:11:26.598Z,2.00
2022-09-04T11:14:31.775Z,2.15
2022-09-04T11:17:42.341Z,2.20
2022-09-04T11:20:29.880Z,2.25
2022-09-04T11:23:21.686Z,2.13
2022-09-04T11:26:10.863Z,1.98
2022-09-04T11:28:57.138Z,1.90
2022-09-04T11:31:47.139Z,1.70
2022-09-04T11:34:42.034Z,2.00
2022-09-04T11:37:21.128Z,1.85
2022-09-04T11:39:54.039Z,2.00
2022-09-04T11:42:25.513Z,1.60
2022-09-04T11:45:38.080Z,1.80
2022-09-04T11:48:29.417Z,1.65
2022-09-04T11:51:40.621Z,1.63
2022-09-04T11:54:34.655Z,1.80
2022-09-04T11:57:08.195Z,2.00
2022-09-04T11:59:53.891Z,2.03
2022-09-04T12:02:26.537Z,1.88
2022-09-04T12:05:39.740Z,1.70
2022-09-04T12:08:39.595Z,1.70
2022-09-04T12:12:00.420Z,1.60
2022-09-04T12:14:42.459Z,1.52
2022-09-04T12:17:40.835Z,1.60
2022-09-04T12:20:24.645Z,1.88
2022-09-04T12:23:02.086Z,1.75
2022-09-04T12:25:55.674Z,1.67
2022-09-04T12:28:38.146Z,1.60
2022-09-04T12:31:36.355Z,1.90
2022-09-04T12:34:25.101Z,1.77
2022-09-04T12:36:59.490Z,1.70
2022-09-04T12:39:49.512Z,1.80
2022-09-04T12:42:28.957Z,2.05
2022-09-04T12:44:56.275Z,1.98
2022-09-04T12:47:47.418Z,1.83
2022-09-04T12:50:32.143Z,1.80
2022-09-04T12:53:14.711Z,1.50
2022-09-04T12:56:03.570Z,1.90
2022-09-04T12:58:52.306Z,2.00
2022-09-04T13:01:41.129Z,1.88
2022-09-04T13:04:49.877Z,2.17
2022-09-04T13:07:24.683Z,1.85
2022-09-04T13:10:17.169Z,2.03
2022-09-04T13:13:04.656Z,1.63
2022-09-04T13:15:43.341Z,1.85
2022-09-04T13:18:35.491Z,1.77
2022-09-04T13:21:11.535Z,1.88
2022-09-04T13:24:10.308Z,1.70
2022-09-04T13:26:55.118Z,1.70
2022-09-04T13:29:40.484Z,1.70
2022-09-04T13:32:32.170Z,1.70
2022-09-04T13:35:25.319Z,1.60
2022-09-04T13:38:04.562Z,1.58
2022-09-04T13:40:43.514Z,1.80
2022-09-04T13:43:26.547Z,1.73
2022-09-04T13:46:00.540Z,1.65
2022-09-04T13:48:52.245Z,1.67
2022-09-04T13:51:33.393Z,2.00
2022-09-04T13:54:17.479Z,1.75
2022-09-04T13:56:58.221Z,1.70
2022-09-04T13:59:26.585Z,1.75
2022-09-04T14:02:02.687Z,1.60
2022-09-04T14:04:44.182Z,1.67
2022-09-04T14:07:24.834Z,1.77
2022-09-04T14:09:56.157Z,2.08
2022-09-04T14:13:02.101Z,1.98
2022-09-04T14:15:49.229Z,1.80
2022-09-04T14:18:19.028Z,1.77
2022-09-04T14:21:01.537Z,1.52
2022-09-04T14:23:45.323Z,1.60
2022-09-04T14:26:39.301Z,1.73
2022-09-04T14:29:22.369Z,1.70
2022-09-04T14:32:28.405Z,1.90
2022-09-04T14:34:56.604Z,1.90
2022-09-04T14:38:01.424Z,1.70
2022-09-04T14:40:39.253Z,1.80
2022-09-04T14:43:38.127Z,1.63
2022-09-04T14:46:33.222Z,2.05
2022-09-04T14:49:04.758Z,1.67
2022-09-04T14:51:46.062Z,1.80
2022-09-04T14:54:39.533Z,1.55
2022-09-04T14:57:23.678Z,1.70
2022-09-04T15:00:12.255Z,1.70
2022-09-04T15:02:55.001Z,1.60
2022-09-04T15:05:51.794Z,1.88
2022-09-04T15:08:35.638Z,1.55
2022-09-04T15:11:09.959Z,2.20
2022-09-04T15:13:53.861Z,1.80
2022-09-04T15:16:33.085Z,2.22
2022-09-04T15:19:30.567Z,1.60
2022-09-04T15:22:05.678Z,1.60
2022-09-04T15:24:38.946Z,1.70
2022-09-04T15:27:14.659Z,1.60
2022-09-04T15:29:53.770Z,1.63
2022-09-04T15:32:31.933Z,1.98
2022-09-04T15:35:33.894Z,1.67
2022-09-04T15:38:09.997Z,1.50
2022-09-04T15:41:18.169Z,1.90
2022-09-04T15:44:06.964Z,1.80
2022-09-04T15:47:04.899Z,2.03
2022-09-04T15:49:49.923Z,1.80
2022-09-04T15:52:41.457Z,1.92
2022-09-04T15:55:32.005Z,1.75
2022-09-04T15:58:32.840Z,2.35
2022-09-04T16:01:06.473Z,1.85
2022-09-04T16:03:42.700Z,1.50
2022-09-04T16:06:57.971Z,1.70
2022-09-04T16:09:52.201Z,1.73
2022-09-04T16:12:28.094Z,1.73
2022-09-04T16:18:20.077Z,1.90
2022-09-04T16:21:03.509Z,1.80
2022-09-04T16:23:37.204Z,1.60
2022-09-04T16:26:20.837Z,1.63
2022-09-04T16:28:56.199Z,2.00
2022-09-04T16:31:34.923Z,1.50
2022-09-04T16:34:16.129Z,1.80
2022-09-04T16:36:52.041Z,1.67
2022-09-04T16:40:03.564Z,1.90
2022-09-04T16:42:51.025Z,1.75
2022-09-04T16:45:21.152Z,1.77
2022-09-04T16:48:35.027Z,1.70
2022-09-04T16:51:41.432Z,1.67
2022-09-04T16:54:31.041Z,2.00
2022-09-04T16:57:12.961Z,1.58
2022-09-04T16:59:43.745Z,1.50
2022-09-04T17:02:37.782Z,1.90
2022-09-04T17:05:19.629Z,1.70
2022-09-04T17:08:05.908Z,2.05
2022-09-04T17:11:15.483Z,1.70
2022-09-04T17:14:08.986Z,1.77
2022-09-04T17:16:53.169Z,2.00
2022-09-04T17:19:22.673Z,1.92
2022-09-04T17:28:54.109Z,2.00
2022-09-04T17:29:00.943Z,2.10
2022-09-04T17:29:16.015Z,2.40
2022-09-04T17:31:59.600Z,2.20
2022-09-04T17:40:34.602Z,2.17
2022-09-04T17:40:37.881Z,2.10
2022-09-04T17:41:40.761Z,2.10
2022-09-04T17:44:05.565Z,2.08
2022-09-04T17:46:36.945Z,2.00
2022-09-04T17:49:15.071Z,2.20
2022-09-04T17:51:50.475Z,1.98
2022-09-04T17:54:27.150Z,2.00
2022-09-04T17:57:10.930Z,2.00
2022-09-04T18:00:03.038Z,2.08
2022-09-04T18:02:45.414Z,2.10
2022-09-04T18:05:41.214Z,2.10
2022-09-04T18:08:22.565Z,2.00
2022-09-04T18:11:18.693Z,1.80
2022-09-04T18:14:02.090Z,2.10
2022-09-04T18:16:45.516Z,2.03
2022-09-04T18:19:45.063Z,2.20
2022-09-04T18:22:32.094Z,3.20
2022-09-04T18:25:24.990Z,2.55
2022-09-04T18:28:11.677Z,2.40
2022-09-04T18:36:35.462Z,2.00
2022-09-04T18:37:22.079Z,2.10
2022-09-04T18:37:43.973Z,1.90
2022-09-04T18:40:09.919Z,2.20
2022-09-04T18:50:22.579Z,2.40
2022-09-04T18:50:44.949Z,2.05
2022-09-04T18:50:45.736Z,1.90
2022-09-04T18:51:32.773Z,1.98
2022-09-04T19:07:07.729Z,2.50
2022-09-04T19:13:09.242Z,2.25
2022-09-04T20:27:27.195Z,2.88
2022-09-04T20:30:04.595Z,2.40
2022-09-04T20:32:37.732Z,2.30
2022-09-04T20:35:33.334Z,2.38
2022-09-04T20:38:30.621Z,2.63
2022-09-04T20:41:00.301Z,2.30
2022-09-04T20:44:13.644Z,2.58
2022-09-04T20:52:40.831Z,2.55
2022-09-04T20:52:59.686Z,2.40
2022-09-04T20:53:11.119Z,2.35
2022-09-04T20:56:08.087Z,2.38
2022-09-04T21:03:15.014Z,2.40
2022-09-04T21:03:24.385Z,2.40
2022-09-04T21:05:32.998Z,2.53
2022-09-04T21:08:25.165Z,2.70
2022-09-04T21:11:19.149Z,2.50
2022-09-04T21:14:00.807Z,2.45
2022-09-04T21:16:39.916Z,2.83
2022-09-04T21:19:44.931Z,2.60
2022-09-04T21:22:49.408Z,2.97
2022-09-04T21:25:30.421Z,4.20
2022-09-04T21:28:12.469Z,2.92
2022-09-04T21:30:54.958Z,2.80
2022-09-04T21:33:58.946Z,2.85
2022-09-04T21:36:44.271Z,3.00
2022-09-04T21:39:24.201Z,3.00
2022-09-04T21:42:17.209Z,2.63
2022-09-04T21:45:08.048Z,3.67
2022-09-04T21:48:17.978Z,3.00
2022-09-04T21:51:18.622Z,3.07
2022-09-04T21:54:38.131Z,3.05
2022-09-04T22:02:30.785Z,3.10
2022-09-04T22:02:41.703Z,3.20
2022-09-04T22:03:30.217Z,3.10
2022-09-04T22:06:54.277Z,3.13
2022-09-04T22:13:34.660Z,3.20
2022-09-04T22:13:42.341Z,3.43
2022-09-04T22:15:58.060Z,3.50
2022-09-04T22:18:48.290Z,3.20
2022-09-04T22:21:25.047Z,3.53
2022-09-04T22:24:18.236Z,3.23
2022-09-04T22:26:57.186Z,3.43
2022-09-04T22:29:40.029Z,3.20
2022-09-04T22:32:45.281Z,3.43
2022-09-04T22:35:36.126Z,3.20
2022-09-04T22:38:25.576Z,3.50
2022-09-04T22:41:11.396Z,4.10
2022-09-04T22:43:46.498Z,4.23
2022-09-04T22:46:56.229Z,3.70
2022-09-04T22:49:59.934Z,3.43
2022-09-04T22:52:48.751Z,3.67
2022-09-04T22:56:03.830Z,3.27
2022-09-04T22:59:23.869Z,3.40
2022-09-04T23:02:13.380Z,3.27
2022-09-04T23:04:58.156Z,3.37
2022-09-04T23:13:43.349Z,3.40
2022-09-04T23:14:00.480Z,3.50
2022-09-04T23:16:28.221Z,3.58
2022-09-04T23:23:50.772Z,3.30
2022-09-04T23:26:39.477Z,3.50
2022-09-04T23:26:46.819Z,3.67
2022-09-04T23:28:39.872Z,3.40
2022-09-04T23:31:37.233Z,3.47
2022-09-04T23:34:30.518Z,3.70
2022-09-04T23:37:34.990Z,4.40
2022-09-04T23:40:25.900Z,4.57
2022-09-04T23:43:21.808Z,4.03
2022-09-04T23:46:14.355Z,4.20
2022-09-04T23:48:41.538Z,4.83
2022-09-04T23:51:33.446Z,4.53
2022-09-04T23:54:28.634Z,4.83
2022-09-04T23:57:25.891Z,4.37
